sensor_id;sensor_type;location;lat;lon;timestamp;P1;durP1;ratioP1;P2;durP2;ratioP2
74495;SDS011;62979;55.720;37.606;2022-11-22T00:00:39;13.68;;;7.70;;
74495;SDS011;62979;55.720;37.606;2022-11-22T00:03:08;14.25;;;8.00;;
74495;SDS011;62979;55.720;37.606;2022-11-22T00:08:02;15.85;;;7.28;;
74495;SDS011;62979;55.720;37.606;2022-11-22T00:10:30;16.20;;;6.68;;
74495;SDS011;62979;55.720;37.606;2022-11-22T00:12:58;16.52;;;7.65;;
74495;SDS011;62979;55.720;37.606;2022-11-22T00:15:25;16.45;;;8.68;;
74495;SDS011;62979;55.720;37.606;2022-11-22T00:17:53;10.43;;;5.88;;
74495;SDS011;62979;55.720;37.606;2022-11-22T00:20:22;17.35;;;8.23;;
74495;SDS011;62979;55.720;37.606;2022-11-22T00:22:49;15.00;;;7.93;;
74495;SDS011;62979;55.720;37.606;2022-11-22T00:25:16;15.93;;;8.02;;
74495;SDS011;62979;55.720;37.606;2022-11-22T00:27:43;15.50;;;7.88;;
74495;SDS011;62979;55.720;37.606;2022-11-22T00:30:10;14.07;;;7.70;;
74495;SDS011;62979;55.720;37.606;2022-11-22T00:32:37;16.48;;;9.10;;
74495;SDS011;62979;55.720;37.606;2022-11-22T00:35:05;16.42;;;7.43;;
74495;SDS011;62979;55.720;37.606;2022-11-22T00:37:34;12.38;;;6.00;;
74495;SDS011;62979;55.720;37.606;2022-11-22T00:40:01;12.70;;;6.38;;
74495;SDS011;62979;55.720;37.606;2022-11-22T00:42:29;18.00;;;7.20;;
74495;SDS011;62979;55.720;37.606;2022-11-22T00:44:56;15.68;;;8.32;;
74495;SDS011;62979;55.720;37.606;2022-11-22T00:47:23;13.57;;;7.30;;
74495;SDS011;62979;55.720;37.606;2022-11-22T00:49:50;11.45;;;5.68;;
74495;SDS011;62979;55.720;37.606;2022-11-22T00:52:17;12.45;;;6.65;;
74495;SDS011;62979;55.720;37.606;2022-11-22T00:54:45;16.25;;;8.73;;
74495;SDS011;62979;55.720;37.606;2022-11-22T00:57:12;16.00;;;6.50;;
74495;SDS011;62979;55.720;37.606;2022-11-22T00:59:39;16.00;;;8.57;;
74495;SDS011;62979;55.720;37.606;2022-11-22T01:02:06;14.32;;;6.72;;
74495;SDS011;62979;55.720;37.606;2022-11-22T01:04:33;10.05;;;6.18;;
74495;SDS011;62979;55.720;37.606;2022-11-22T01:07:00;15.18;;;9.05;;
74495;SDS011;62979;55.720;37.606;2022-11-22T01:09:28;15.82;;;7.68;;
74495;SDS011;62979;55.720;37.606;2022-11-22T01:11:56;16.85;;;7.90;;
74495;SDS011;62979;55.720;37.606;2022-11-22T01:14:23;16.55;;;7.78;;
74495;SDS011;62979;55.720;37.606;2022-11-22T01:16:50;16.02;;;7.60;;
74495;SDS011;62979;55.720;37.606;2022-11-22T01:19:17;18.35;;;8.13;;
74495;SDS011;62979;55.720;37.606;2022-11-22T01:21:44;18.70;;;8.07;;
74495;SDS011;62979;55.720;37.606;2022-11-22T01:24:11;9.40;;;3.78;;
74495;SDS011;62979;55.720;37.606;2022-11-22T01:26:38;15.63;;;7.93;;
74495;SDS011;62979;55.720;37.606;2022-11-22T01:29:06;15.68;;;9.25;;
74495;SDS011;62979;55.720;37.606;2022-11-22T01:31:33;21.10;;;9.88;;
74495;SDS011;62979;55.720;37.606;2022-11-22T01:34:03;14.60;;;7.80;;
74495;SDS011;62979;55.720;37.606;2022-11-22T01:36:31;17.50;;;7.35;;
74495;SDS011;62979;55.720;37.606;2022-11-22T01:38:58;18.55;;;8.73;;
74495;SDS011;62979;55.720;37.606;2022-11-22T01:41:25;14.90;;;8.25;;
74495;SDS011;62979;55.720;37.606;2022-11-22T01:43:52;18.92;;;9.10;;
74495;SDS011;62979;55.720;37.606;2022-11-22T01:46:24;10.82;;;5.05;;
74495;SDS011;62979;55.720;37.606;2022-11-22T01:48:59;18.35;;;8.40;;
74495;SDS011;62979;55.720;37.606;2022-11-22T01:51:33;17.65;;;8.70;;
74495;SDS011;62979;55.720;37.606;2022-11-22T01:54:06;20.10;;;11.05;;
74495;SDS011;62979;55.720;37.606;2022-11-22T01:56:42;18.65;;;8.05;;
74495;SDS011;62979;55.720;37.606;2022-11-22T01:59:18;17.67;;;8.93;;
74495;SDS011;62979;55.720;37.606;2022-11-22T02:01:52;18.20;;;8.07;;
74495;SDS011;62979;55.720;37.606;2022-11-22T02:04:20;18.52;;;8.25;;
74495;SDS011;62979;55.720;37.606;2022-11-22T02:06:53;17.17;;;9.05;;
74495;SDS011;62979;55.720;37.606;2022-11-22T02:09:28;18.88;;;8.32;;
74495;SDS011;62979;55.720;37.606;2022-11-22T02:11:59;9.77;;;5.53;;
74495;SDS011;62979;55.720;37.606;2022-11-22T02:14:29;16.45;;;7.80;;
74495;SDS011;62979;55.720;37.606;2022-11-22T02:16:58;16.52;;;7.50;;
74495;SDS011;62979;55.720;37.606;2022-11-22T02:22:05;18.98;;;8.38;;
74495;SDS011;62979;55.720;37.606;2022-11-22T02:24:50;20.55;;;7.60;;
74495;SDS011;62979;55.720;37.606;2022-11-22T02:27:24;16.75;;;6.97;;
74495;SDS011;62979;55.720;37.606;2022-11-22T02:29:51;17.80;;;7.38;;
74495;SDS011;62979;55.720;37.606;2022-11-22T02:32:18;18.83;;;10.63;;
74495;SDS011;62979;55.720;37.606;2022-11-22T02:34:46;15.45;;;6.70;;
74495;SDS011;62979;55.720;37.606;2022-11-22T02:37:16;16.92;;;8.77;;
74495;SDS011;62979;55.720;37.606;2022-11-22T02:39:48;18.90;;;10.07;;
74495;SDS011;62979;55.720;37.606;2022-11-22T02:42:23;17.52;;;8.07;;
74495;SDS011;62979;55.720;37.606;2022-11-22T02:44:53;12.68;;;5.50;;
74495;SDS011;62979;55.720;37.606;2022-11-22T02:47:20;16.60;;;9.30;;
74495;SDS011;62979;55.720;37.606;2022-11-22T02:49:47;18.48;;;9.00;;
74495;SDS011;62979;55.720;37.606;2022-11-22T02:52:14;16.95;;;8.95;;
74495;SDS011;62979;55.720;37.606;2022-11-22T02:54:42;16.90;;;8.57;;
74495;SDS011;62979;55.720;37.606;2022-11-22T02:57:11;9.98;;;4.60;;
74495;SDS011;62979;55.720;37.606;2022-11-22T02:59:40;18.00;;;6.00;;
74495;SDS011;62979;55.720;37.606;2022-11-22T03:02:06;15.60;;;7.72;;
74495;SDS011;62979;55.720;37.606;2022-11-22T03:04:33;16.75;;;8.68;;
74495;SDS011;62979;55.720;37.606;2022-11-22T03:07:01;17.38;;;8.98;;
74495;SDS011;62979;55.720;37.606;2022-11-22T03:09:28;19.40;;;8.95;;
74495;SDS011;62979;55.720;37.606;2022-11-22T03:11:56;9.68;;;6.07;;
74495;SDS011;62979;55.720;37.606;2022-11-22T03:14:23;10.45;;;4.75;;
74495;SDS011;62979;55.720;37.606;2022-11-22T03:16:52;12.73;;;6.38;;
74495;SDS011;62979;55.720;37.606;2022-11-22T03:19:19;9.77;;;4.88;;
74495;SDS011;62979;55.720;37.606;2022-11-22T03:21:46;17.08;;;6.72;;
74495;SDS011;62979;55.720;37.606;2022-11-22T03:24:14;14.98;;;7.10;;
74495;SDS011;62979;55.720;37.606;2022-11-22T03:26:41;18.33;;;7.47;;
74495;SDS011;62979;55.720;37.606;2022-11-22T03:29:13;15.00;;;9.32;;
74495;SDS011;62979;55.720;37.606;2022-11-22T03:31:40;13.90;;;6.85;;
74495;SDS011;62979;55.720;37.606;2022-11-22T03:34:09;14.93;;;5.93;;
74495;SDS011;62979;55.720;37.606;2022-11-22T03:36:37;15.88;;;6.88;;
74495;SDS011;62979;55.720;37.606;2022-11-22T03:39:04;19.10;;;8.27;;
74495;SDS011;62979;55.720;37.606;2022-11-22T03:41:32;15.10;;;7.50;;
74495;SDS011;62979;55.720;37.606;2022-11-22T03:43:59;15.05;;;6.75;;
74495;SDS011;62979;55.720;37.606;2022-11-22T03:46:26;14.07;;;7.55;;
74495;SDS011;62979;55.720;37.606;2022-11-22T03:48:53;15.40;;;7.65;;
74495;SDS011;62979;55.720;37.606;2022-11-22T03:51:21;15.45;;;6.63;;
74495;SDS011;62979;55.720;37.606;2022-11-22T03:56:15;12.77;;;7.85;;
74495;SDS011;62979;55.720;37.606;2022-11-22T03:58:42;15.50;;;7.95;;
74495;SDS011;62979;55.720;37.606;2022-11-22T04:01:09;13.57;;;7.50;;
74495;SDS011;62979;55.720;37.606;2022-11-22T04:03:36;14.25;;;6.97;;
74495;SDS011;62979;55.720;37.606;2022-11-22T04:06:03;16.17;;;6.45;;
74495;SDS011;62979;55.720;37.606;2022-11-22T04:08:32;14.40;;;7.93;;
74495;SDS011;62979;55.720;37.606;2022-11-22T04:10:59;14.88;;;6.47;;
74495;SDS011;62979;55.720;37.606;2022-11-22T04:13:26;15.18;;;7.47;;
74495;SDS011;62979;55.720;37.606;2022-11-22T04:16:07;15.25;;;5.90;;
74495;SDS011;62979;55.720;37.606;2022-11-22T04:18:34;14.07;;;6.93;;
74495;SDS011;62979;55.720;37.606;2022-11-22T04:21:01;15.43;;;7.38;;
74495;SDS011;62979;55.720;37.606;2022-11-22T04:23:47;12.63;;;6.95;;
74495;SDS011;62979;55.720;37.606;2022-11-22T04:26:34;15.25;;;9.20;;
74495;SDS011;62979;55.720;37.606;2022-11-22T04:29:00;12.75;;;6.28;;
74495;SDS011;62979;55.720;37.606;2022-11-22T04:31:28;12.35;;;5.68;;
74495;SDS011;62979;55.720;37.606;2022-11-22T04:34:12;14.98;;;8.13;;
74495;SDS011;62979;55.720;37.606;2022-11-22T04:36:39;15.15;;;7.68;;
74495;SDS011;62979;55.720;37.606;2022-11-22T04:39:08;18.17;;;8.68;;
74495;SDS011;62979;55.720;37.606;2022-11-22T04:44:02;13.82;;;7.10;;
74495;SDS011;62979;55.720;37.606;2022-11-22T04:46:46;10.38;;;4.75;;
74495;SDS011;62979;55.720;37.606;2022-11-22T04:49:13;15.25;;;7.10;;
74495;SDS011;62979;55.720;37.606;2022-11-22T04:51:40;14.57;;;7.57;;
74495;SDS011;62979;55.720;37.606;2022-11-22T04:54:26;16.02;;;6.18;;
74495;SDS011;62979;55.720;37.606;2022-11-22T04:56:53;12.80;;;6.88;;
74495;SDS011;62979;55.720;37.606;2022-11-22T04:59:20;18.27;;;8.07;;
74495;SDS011;62979;55.720;37.606;2022-11-22T05:01:47;8.75;;;3.85;;
74495;SDS011;62979;55.720;37.606;2022-11-22T05:04:14;13.30;;;7.15;;
74495;SDS011;62979;55.720;37.606;2022-11-22T05:06:41;16.38;;;7.15;;
74495;SDS011;62979;55.720;37.606;2022-11-22T05:09:08;11.52;;;5.82;;
74495;SDS011;62979;55.720;37.606;2022-11-22T05:11:37;12.60;;;5.28;;
74495;SDS011;62979;55.720;37.606;2022-11-22T05:14:04;17.13;;;7.05;;
74495;SDS011;62979;55.720;37.606;2022-11-22T05:16:30;15.90;;;7.57;;
74495;SDS011;62979;55.720;37.606;2022-11-22T05:18:57;10.75;;;5.32;;
74495;SDS011;62979;55.720;37.606;2022-11-22T05:21:25;14.43;;;6.47;;
74495;SDS011;62979;55.720;37.606;2022-11-22T05:23:54;10.27;;;4.85;;
74495;SDS011;62979;55.720;37.606;2022-11-22T05:26:21;6.55;;;3.60;;
74495;SDS011;62979;55.720;37.606;2022-11-22T05:28:51;11.98;;;6.07;;
74495;SDS011;62979;55.720;37.606;2022-11-22T05:31:19;18.92;;;7.05;;
74495;SDS011;62979;55.720;37.606;2022-11-22T05:33:48;8.05;;;5.30;;
74495;SDS011;62979;55.720;37.606;2022-11-22T05:36:18;12.73;;;6.20;;
74495;SDS011;62979;55.720;37.606;2022-11-22T05:38:46;10.18;;;5.82;;
74495;SDS011;62979;55.720;37.606;2022-11-22T05:41:14;10.20;;;6.65;;
74495;SDS011;62979;55.720;37.606;2022-11-22T05:43:42;9.57;;;5.80;;
74495;SDS011;62979;55.720;37.606;2022-11-22T05:46:12;10.30;;;5.20;;
74495;SDS011;62979;55.720;37.606;2022-11-22T05:48:42;13.98;;;5.53;;
74495;SDS011;62979;55.720;37.606;2022-11-22T05:51:12;15.13;;;7.45;;
74495;SDS011;62979;55.720;37.606;2022-11-22T05:53:42;11.45;;;6.13;;
74495;SDS011;62979;55.720;37.606;2022-11-22T05:56:11;12.55;;;4.75;;
74495;SDS011;62979;55.720;37.606;2022-11-22T05:58:41;12.65;;;6.13;;
74495;SDS011;62979;55.720;37.606;2022-11-22T06:01:08;8.73;;;4.60;;
74495;SDS011;62979;55.720;37.606;2022-11-22T06:03:39;7.07;;;3.80;;
74495;SDS011;62979;55.720;37.606;2022-11-22T06:06:07;11.23;;;6.03;;
74495;SDS011;62979;55.720;37.606;2022-11-22T06:08:36;15.68;;;5.13;;
74495;SDS011;62979;55.720;37.606;2022-11-22T06:11:06;9.23;;;4.78;;
74495;SDS011;62979;55.720;37.606;2022-11-22T06:13:38;10.82;;;4.85;;
74495;SDS011;62979;55.720;37.606;2022-11-22T06:16:08;14.00;;;6.25;;
74495;SDS011;62979;55.720;37.606;2022-11-22T06:18:37;8.05;;;4.07;;
74495;SDS011;62979;55.720;37.606;2022-11-22T06:21:06;9.32;;;4.32;;
74495;SDS011;62979;55.720;37.606;2022-11-22T06:23:37;10.07;;;4.63;;
74495;SDS011;62979;55.720;37.606;2022-11-22T06:26:04;10.77;;;4.78;;
74495;SDS011;62979;55.720;37.606;2022-11-22T06:28:34;7.93;;;4.20;;
74495;SDS011;62979;55.720;37.606;2022-11-22T06:31:04;10.07;;;4.32;;
74495;SDS011;62979;55.720;37.606;2022-11-22T06:33:36;10.23;;;4.10;;
74495;SDS011;62979;55.720;37.606;2022-11-22T06:36:04;11.05;;;5.72;;
74495;SDS011;62979;55.720;37.606;2022-11-22T06:38:33;9.18;;;4.40;;
74495;SDS011;62979;55.720;37.606;2022-11-22T06:41:01;10.00;;;5.03;;
74495;SDS011;62979;55.720;37.606;2022-11-22T06:43:31;12.13;;;4.57;;
74495;SDS011;62979;55.720;37.606;2022-11-22T06:46:00;7.68;;;4.18;;
74495;SDS011;62979;55.720;37.606;2022-11-22T06:48:30;7.03;;;3.28;;
74495;SDS011;62979;55.720;37.606;2022-11-22T06:51:00;8.77;;;3.97;;
74495;SDS011;62979;55.720;37.606;2022-11-22T06:53:30;9.40;;;4.65;;
74495;SDS011;62979;55.720;37.606;2022-11-22T06:56:00;9.23;;;4.45;;
74495;SDS011;62979;55.720;37.606;2022-11-22T06:58:27;9.20;;;4.28;;
74495;SDS011;62979;55.720;37.606;2022-11-22T07:00:58;7.07;;;4.07;;
74495;SDS011;62979;55.720;37.606;2022-11-22T07:03:26;7.10;;;1.80;;
74495;SDS011;62979;55.720;37.606;2022-11-22T07:05:53;9.75;;;4.65;;
74495;SDS011;62979;55.720;37.606;2022-11-22T07:08:22;6.68;;;3.47;;
74495;SDS011;62979;55.720;37.606;2022-11-22T07:10:49;9.65;;;3.90;;
74495;SDS011;62979;55.720;37.606;2022-11-22T07:13:16;6.97;;;3.70;;
74495;SDS011;62979;55.720;37.606;2022-11-22T07:15:52;7.72;;;2.97;;
74495;SDS011;62979;55.720;37.606;2022-11-22T07:18:20;6.13;;;3.33;;
74495;SDS011;62979;55.720;37.606;2022-11-22T07:20:48;5.78;;;2.58;;
74495;SDS011;62979;55.720;37.606;2022-11-22T07:23:15;7.75;;;3.45;;
74495;SDS011;62979;55.720;37.606;2022-11-22T07:25:44;6.15;;;4.30;;
74495;SDS011;62979;55.720;37.606;2022-11-22T07:28:11;6.72;;;3.25;;
74495;SDS011;62979;55.720;37.606;2022-11-22T07:30:39;4.00;;;2.20;;
74495;SDS011;62979;55.720;37.606;2022-11-22T07:33:06;5.25;;;3.15;;
74495;SDS011;62979;55.720;37.606;2022-11-22T07:35:34;5.30;;;3.25;;
74495;SDS011;62979;55.720;37.606;2022-11-22T07:38:01;6.00;;;3.47;;
74495;SDS011;62979;55.720;37.606;2022-11-22T07:40:29;7.63;;;3.05;;
74495;SDS011;62979;55.720;37.606;2022-11-22T07:42:57;3.55;;;1.88;;
74495;SDS011;62979;55.720;37.606;2022-11-22T07:45:25;4.40;;;2.58;;
74495;SDS011;62979;55.720;37.606;2022-11-22T07:47:52;5.65;;;3.05;;
74495;SDS011;62979;55.720;37.606;2022-11-22T07:50:19;5.05;;;2.50;;
74495;SDS011;62979;55.720;37.606;2022-11-22T07:52:46;7.35;;;3.33;;
74495;SDS011;62979;55.720;37.606;2022-11-22T07:55:21;5.65;;;3.08;;
74495;SDS011;62979;55.720;37.606;2022-11-22T07:57:49;7.57;;;3.13;;
74495;SDS011;62979;55.720;37.606;2022-11-22T08:00:18;7.82;;;3.22;;
74495;SDS011;62979;55.720;37.606;2022-11-22T08:02:46;10.80;;;4.10;;
74495;SDS011;62979;55.720;37.606;2022-11-22T08:05:13;6.47;;;3.55;;
74495;SDS011;62979;55.720;37.606;2022-11-22T08:07:44;5.43;;;3.25;;
74495;SDS011;62979;55.720;37.606;2022-11-22T08:10:12;4.63;;;2.25;;
74495;SDS011;62979;55.720;37.606;2022-11-22T08:12:40;4.93;;;3.70;;
74495;SDS011;62979;55.720;37.606;2022-11-22T08:15:07;8.00;;;3.85;;
74495;SDS011;62979;55.720;37.606;2022-11-22T08:17:37;5.85;;;3.50;;
74495;SDS011;62979;55.720;37.606;2022-11-22T08:20:05;7.50;;;4.00;;
74495;SDS011;62979;55.720;37.606;2022-11-22T08:22:34;7.95;;;2.92;;
74495;SDS011;62979;55.720;37.606;2022-11-22T08:25:01;6.22;;;3.22;;
74495;SDS011;62979;55.720;37.606;2022-11-22T08:27:28;4.32;;;2.55;;
74495;SDS011;62979;55.720;37.606;2022-11-22T08:29:55;4.90;;;2.35;;
74495;SDS011;62979;55.720;37.606;2022-11-22T08:32:22;8.70;;;3.70;;
74495;SDS011;62979;55.720;37.606;2022-11-22T08:34:50;7.07;;;4.00;;
74495;SDS011;62979;55.720;37.606;2022-11-22T08:37:17;7.05;;;3.42;;
74495;SDS011;62979;55.720;37.606;2022-11-22T08:39:44;5.95;;;2.30;;
74495;SDS011;62979;55.720;37.606;2022-11-22T08:42:11;6.05;;;2.58;;
74495;SDS011;62979;55.720;37.606;2022-11-22T08:44:38;6.85;;;3.53;;
74495;SDS011;62979;55.720;37.606;2022-11-22T08:47:05;4.63;;;2.15;;
74495;SDS011;62979;55.720;37.606;2022-11-22T08:49:32;5.93;;;2.70;;
74495;SDS011;62979;55.720;37.606;2022-11-22T08:52:01;5.70;;;2.38;;
74495;SDS011;62979;55.720;37.606;2022-11-22T08:54:28;5.05;;;1.92;;
74495;SDS011;62979;55.720;37.606;2022-11-22T08:56:55;3.63;;;2.35;;
74495;SDS011;62979;55.720;37.606;2022-11-22T08:59:22;4.63;;;2.72;;
74495;SDS011;62979;55.720;37.606;2022-11-22T09:01:49;4.90;;;2.65;;
74495;SDS011;62979;55.720;37.606;2022-11-22T09:04:16;8.82;;;2.88;;
74495;SDS011;62979;55.720;37.606;2022-11-22T09:06:43;5.85;;;2.53;;
74495;SDS011;62979;55.720;37.606;2022-11-22T09:09:12;11.68;;;3.15;;
74495;SDS011;62979;55.720;37.606;2022-11-22T09:11:38;4.45;;;2.42;;
74495;SDS011;62979;55.720;37.606;2022-11-22T09:14:06;3.83;;;2.42;;
74495;SDS011;62979;55.720;37.606;2022-11-22T09:16:33;4.10;;;2.60;;
74495;SDS011;62979;55.720;37.606;2022-11-22T09:19:00;6.95;;;3.30;;
74495;SDS011;62979;55.720;37.606;2022-11-22T09:21:27;5.10;;;3.17;;
74495;SDS011;62979;55.720;37.606;2022-11-22T09:23:54;5.43;;;3.30;;
74495;SDS011;62979;55.720;37.606;2022-11-22T09:26:22;5.15;;;2.55;;
74495;SDS011;62979;55.720;37.606;2022-11-22T09:28:50;3.65;;;2.50;;
74495;SDS011;62979;55.720;37.606;2022-11-22T09:31:19;3.70;;;2.17;;
74495;SDS011;62979;55.720;37.606;2022-11-22T09:33:48;6.95;;;2.28;;
74495;SDS011;62979;55.720;37.606;2022-11-22T09:38:44;4.45;;;2.08;;
74495;SDS011;62979;55.720;37.606;2022-11-22T09:41:16;6.00;;;3.17;;
74495;SDS011;62979;55.720;37.606;2022-11-22T09:44:10;8.07;;;3.70;;
74495;SDS011;62979;55.720;37.606;2022-11-22T09:46:50;5.80;;;3.25;;
74495;SDS011;62979;55.720;37.606;2022-11-22T09:49:25;4.80;;;3.05;;
74495;SDS011;62979;55.720;37.606;2022-11-22T09:51:57;8.25;;;2.38;;
74495;SDS011;62979;55.720;37.606;2022-11-22T09:54:33;6.68;;;3.05;;
74495;SDS011;62979;55.720;37.606;2022-11-22T09:57:11;4.95;;;2.55;;
74495;SDS011;62979;55.720;37.606;2022-11-22T09:59:45;4.30;;;2.65;;
74495;SDS011;62979;55.720;37.606;2022-11-22T10:02:20;3.03;;;1.35;;
74495;SDS011;62979;55.720;37.606;2022-11-22T10:04:55;3.75;;;2.65;;
74495;SDS011;62979;55.720;37.606;2022-11-22T10:07:27;4.70;;;2.35;;
74495;SDS011;62979;55.720;37.606;2022-11-22T10:10:02;4.35;;;3.47;;
74495;SDS011;62979;55.720;37.606;2022-11-22T10:12:38;5.78;;;2.88;;
74495;SDS011;62979;55.720;37.606;2022-11-22T10:15:14;4.97;;;2.38;;
74495;SDS011;62979;55.720;37.606;2022-11-22T10:17:55;4.38;;;3.25;;
74495;SDS011;62979;55.720;37.606;2022-11-22T10:20:27;2.65;;;2.15;;
74495;SDS011;62979;55.720;37.606;2022-11-22T10:22:57;5.28;;;2.65;;
74495;SDS011;62979;55.720;37.606;2022-11-22T10:25:26;3.67;;;2.58;;
74495;SDS011;62979;55.720;37.606;2022-11-22T10:28:09;2.88;;;1.60;;
74495;SDS011;62979;55.720;37.606;2022-11-22T10:30:44;3.88;;;1.95;;
74495;SDS011;62979;55.720;37.606;2022-11-22T10:33:22;4.05;;;2.25;;
74495;SDS011;62979;55.720;37.606;2022-11-22T10:36:04;2.42;;;1.58;;
74495;SDS011;62979;55.720;37.606;2022-11-22T10:45:11;3.53;;;1.55;;
74495;SDS011;62979;55.720;37.606;2022-11-22T10:47:55;4.15;;;1.83;;
74495;SDS011;62979;55.720;37.606;2022-11-22T10:50:41;4.35;;;1.60;;
74495;SDS011;62979;55.720;37.606;2022-11-22T10:53:25;9.70;;;2.88;;
74495;SDS011;62979;55.720;37.606;2022-11-22T10:56:08;4.35;;;2.45;;
74495;SDS011;62979;55.720;37.606;2022-11-22T10:58:50;4.93;;;1.75;;
74495;SDS011;62979;55.720;37.606;2022-11-22T11:01:34;3.65;;;1.38;;
74495;SDS011;62979;55.720;37.606;2022-11-22T11:04:11;2.33;;;1.92;;
74495;SDS011;62979;55.720;37.606;2022-11-22T11:06:43;5.18;;;1.88;;
74495;SDS011;62979;55.720;37.606;2022-11-22T11:09:16;5.10;;;1.67;;
74495;SDS011;62979;55.720;37.606;2022-11-22T11:11:48;3.55;;;2.38;;
74495;SDS011;62979;55.720;37.606;2022-11-22T11:14:21;3.35;;;1.48;;
74495;SDS011;62979;55.720;37.606;2022-11-22T11:16:56;2.85;;;1.85;;
74495;SDS011;62979;55.720;37.606;2022-11-22T11:19:25;2.95;;;2.05;;
74495;SDS011;62979;55.720;37.606;2022-11-22T11:21:57;4.68;;;2.05;;
74495;SDS011;62979;55.720;37.606;2022-11-22T11:24:41;4.75;;;2.03;;
74495;SDS011;62979;55.720;37.606;2022-11-22T11:27:09;7.68;;;3.33;;
74495;SDS011;62979;55.720;37.606;2022-11-22T11:29:38;7.32;;;3.65;;
74495;SDS011;62979;55.720;37.606;2022-11-22T11:32:14;3.63;;;2.25;;
74495;SDS011;62979;55.720;37.606;2022-11-22T11:34:47;6.60;;;3.17;;
74495;SDS011;62979;55.720;37.606;2022-11-22T11:37:22;3.65;;;2.72;;
74495;SDS011;62979;55.720;37.606;2022-11-22T11:39:52;4.45;;;1.83;;
74495;SDS011;62979;55.720;37.606;2022-11-22T11:42:20;3.05;;;1.65;;
74495;SDS011;62979;55.720;37.606;2022-11-22T11:44:51;8.60;;;2.53;;
74495;SDS011;62979;55.720;37.606;2022-11-22T11:47:31;4.15;;;2.97;;
74495;SDS011;62979;55.720;37.606;2022-11-22T11:50:00;3.15;;;1.95;;
74495;SDS011;62979;55.720;37.606;2022-11-22T11:52:27;4.43;;;2.78;;
74495;SDS011;62979;55.720;37.606;2022-11-22T11:54:56;3.45;;;1.67;;
74495;SDS011;62979;55.720;37.606;2022-11-22T11:57:28;4.57;;;2.40;;
74495;SDS011;62979;55.720;37.606;2022-11-22T12:00:00;4.18;;;2.50;;
74495;SDS011;62979;55.720;37.606;2022-11-22T12:02:34;4.60;;;2.13;;
74495;SDS011;62979;55.720;37.606;2022-11-22T12:05:05;5.38;;;3.63;;
74495;SDS011;62979;55.720;37.606;2022-11-22T12:07:51;4.38;;;2.45;;
74495;SDS011;62979;55.720;37.606;2022-11-22T12:10:29;3.65;;;1.65;;
74495;SDS011;62979;55.720;37.606;2022-11-22T12:13:10;2.00;;;1.13;;
74495;SDS011;62979;55.720;37.606;2022-11-22T12:15:49;2.88;;;2.15;;
74495;SDS011;62979;55.720;37.606;2022-11-22T12:18:32;3.33;;;2.08;;
74495;SDS011;62979;55.720;37.606;2022-11-22T12:21:14;5.97;;;2.58;;
74495;SDS011;62979;55.720;37.606;2022-11-22T12:23:54;7.43;;;1.85;;
74495;SDS011;62979;55.720;37.606;2022-11-22T12:26:28;2.40;;;1.85;;
74495;SDS011;62979;55.720;37.606;2022-11-22T12:28:55;3.17;;;1.70;;
74495;SDS011;62979;55.720;37.606;2022-11-22T12:31:26;10.20;;;3.50;;
74495;SDS011;62979;55.720;37.606;2022-11-22T12:34:06;7.10;;;2.20;;
74495;SDS011;62979;55.720;37.606;2022-11-22T12:36:42;12.43;;;3.03;;
74495;SDS011;62979;55.720;37.606;2022-11-22T12:39:17;21.92;;;3.80;;
74495;SDS011;62979;55.720;37.606;2022-11-22T12:41:49;5.82;;;1.55;;
74495;SDS011;62979;55.720;37.606;2022-11-22T12:44:35;10.02;;;4.30;;
74495;SDS011;62979;55.720;37.606;2022-11-22T12:47:11;5.05;;;2.28;;
74495;SDS011;62979;55.720;37.606;2022-11-22T12:49:45;3.92;;;1.95;;
74495;SDS011;62979;55.720;37.606;2022-11-22T12:52:21;5.00;;;2.08;;
74495;SDS011;62979;55.720;37.606;2022-11-22T12:54:59;2.72;;;1.75;;
74495;SDS011;62979;55.720;37.606;2022-11-22T12:57:36;4.03;;;1.42;;
74495;SDS011;62979;55.720;37.606;2022-11-22T13:00:12;5.32;;;1.88;;
74495;SDS011;62979;55.720;37.606;2022-11-22T13:02:44;4.30;;;1.75;;
74495;SDS011;62979;55.720;37.606;2022-11-22T13:05:25;12.18;;;3.42;;
74495;SDS011;62979;55.720;37.606;2022-11-22T13:07:58;4.90;;;2.85;;
74495;SDS011;62979;55.720;37.606;2022-11-22T13:10:43;4.95;;;2.80;;
74495;SDS011;62979;55.720;37.606;2022-11-22T13:13:16;3.58;;;1.67;;
74495;SDS011;62979;55.720;37.606;2022-11-22T13:15:50;4.03;;;1.92;;
74495;SDS011;62979;55.720;37.606;2022-11-22T13:18:23;4.50;;;2.17;;
74495;SDS011;62979;55.720;37.606;2022-11-22T13:20:58;4.55;;;2.42;;
74495;SDS011;62979;55.720;37.606;2022-11-22T13:26:41;4.80;;;2.13;;
74495;SDS011;62979;55.720;37.606;2022-11-22T13:29:24;3.80;;;2.58;;
74495;SDS011;62979;55.720;37.606;2022-11-22T13:32:01;4.68;;;2.08;;
74495;SDS011;62979;55.720;37.606;2022-11-22T13:34:33;3.22;;;1.85;;
74495;SDS011;62979;55.720;37.606;2022-11-22T13:37:08;4.30;;;1.90;;
74495;SDS011;62979;55.720;37.606;2022-11-22T13:39:41;3.10;;;2.22;;
74495;SDS011;62979;55.720;37.606;2022-11-22T13:42:11;5.30;;;2.95;;
74495;SDS011;62979;55.720;37.606;2022-11-22T13:44:48;1.88;;;1.00;;
74495;SDS011;62979;55.720;37.606;2022-11-22T13:47:36;3.50;;;1.80;;
74495;SDS011;62979;55.720;37.606;2022-11-22T13:53:29;3.40;;;2.08;;
74495;SDS011;62979;55.720;37.606;2022-11-22T13:59:23;6.57;;;2.38;;
74495;SDS011;62979;55.720;37.606;2022-11-22T14:01:54;3.20;;;1.52;;
74495;SDS011;62979;55.720;37.606;2022-11-22T14:04:28;3.60;;;2.15;;
74495;SDS011;62979;55.720;37.606;2022-11-22T14:16:11;2.13;;;1.35;;
74495;SDS011;62979;55.720;37.606;2022-11-22T14:18:56;3.20;;;1.75;;
74495;SDS011;62979;55.720;37.606;2022-11-22T14:21:45;3.50;;;1.65;;
74495;SDS011;62979;55.720;37.606;2022-11-22T14:24:43;2.58;;;1.75;;
74495;SDS011;62979;55.720;37.606;2022-11-22T14:27:35;2.40;;;2.20;;
74495;SDS011;62979;55.720;37.606;2022-11-22T14:30:15;4.65;;;2.03;;
74495;SDS011;62979;55.720;37.606;2022-11-22T14:32:49;3.55;;;1.77;;
74495;SDS011;62979;55.720;37.606;2022-11-22T14:35:29;2.47;;;1.60;;
74495;SDS011;62979;55.720;37.606;2022-11-22T14:38:01;1.90;;;1.08;;
74495;SDS011;62979;55.720;37.606;2022-11-22T14:43:58;2.47;;;1.48;;
74495;SDS011;62979;55.720;37.606;2022-11-22T14:46:30;4.20;;;2.30;;
74495;SDS011;62979;55.720;37.606;2022-11-22T14:49:08;7.53;;;2.28;;
74495;SDS011;62979;55.720;37.606;2022-11-22T14:51:43;4.28;;;2.40;;
74495;SDS011;62979;55.720;37.606;2022-11-22T14:54:18;4.90;;;2.05;;
74495;SDS011;62979;55.720;37.606;2022-11-22T14:56:48;5.30;;;2.47;;
74495;SDS011;62979;55.720;37.606;2022-11-22T14:59:24;5.65;;;2.03;;
74495;SDS011;62979;55.720;37.606;2022-11-22T15:02:29;4.05;;;2.63;;
74495;SDS011;62979;55.720;37.606;2022-11-22T15:05:36;2.78;;;2.03;;
74495;SDS011;62979;55.720;37.606;2022-11-22T15:08:34;3.42;;;1.85;;
74495;SDS011;62979;55.720;37.606;2022-11-22T15:11:22;3.90;;;2.85;;
74495;SDS011;62979;55.720;37.606;2022-11-22T15:17:22;5.10;;;2.40;;
74495;SDS011;62979;55.720;37.606;2022-11-22T15:19:53;5.45;;;2.65;;
74495;SDS011;62979;55.720;37.606;2022-11-22T15:22:25;4.22;;;2.30;;
74495;SDS011;62979;55.720;37.606;2022-11-22T15:24:54;4.30;;;2.40;;
74495;SDS011;62979;55.720;37.606;2022-11-22T15:27:25;4.35;;;3.08;;
74495;SDS011;62979;55.720;37.606;2022-11-22T15:30:08;2.75;;;2.10;;
74495;SDS011;62979;55.720;37.606;2022-11-22T15:32:40;3.60;;;2.38;;
74495;SDS011;62979;55.720;37.606;2022-11-22T15:35:12;4.78;;;3.72;;
74495;SDS011;62979;55.720;37.606;2022-11-22T15:37:43;3.22;;;2.22;;